Victoria Regional Airport
KVCT : now visible

Airfield :











YOU CAN JOIN US ON...

 
LOGIN :

Register | Disclaimer

   EN    FR    IT 

 









Legend :    VFR   Marginal VFR   IFR   Intensive IFR   Very Intensive IFR
Visi :
Ceiling :
>= 8 km
>= 3000ft
5 to 8 km
1000 to 3000 ft
1500m to 5 km
500 to 1000 ft
800 to 1500m
200 to 500 ft
< 800m
< 200 ft
Symbols :   Thunderstorms  Fog  Heavy snow  Heavy precipitations  Wind > 20 kt







- Airport Elevation : 115 ft
- IATA code : VCT


KVCT - Victoria Regional

CURRENT METAR :
  • 220610Z AUTO 16013KT 6SM HZ BKN015 BKN020 OVC034 27/24 A2972 RMK AO2 T02720244

EXPIRED METARs :
  • 220551Z AUTO 16013G20KT 6SM HZ BKN013 BKN018 OVC032 27/24 A2972 RMK AO2 SLP062 T02720244 10289 20267 403220261 50010
  • 220505Z AUTO 16010KT 6SM BR BKN012 BKN021 OVC028 27/25 A2972 RMK AO2 T02720250
  • 220451Z AUTO 16012KT 7SM SCT013 BKN024 OVC030 27/25 A2972 RMK AO2 SLP063 T02720250
  • 220351Z AUTO 15009KT 7SM FEW014 OVC023 27/25 A2971 RMK AO2 SLP059 T02720250

TAF KVCT
Valid from the 22 at 06:00 until the 23 at 06:00 UTC


220520Z 2206/2306 16008KT 6SM HZ OVC015
TEMPO 2209/2213 4SM BR BKN007
FM221600 16017G23KT 6SM HZ BKN020
FM221800 15022G29KT P6SM BKN050
FM230300 14016G24KT P6SM BKN015
KZHU FIR / North America



MET'MAP, your aeronautical weather chart ! - Copyright ORBIFLY December 2007 - Disclaimer

ORBIFLY MET'MAP TEAM :

Programming & Development : Alexandra Zaïnal
Concept & Development : Baudouin d'Aumeries
Co-Development & Prog : Marc-Olivier Méhu
Technical & hardware support : Manuel Goepfert

Contact : metmap@orbifly.com




SOURCES & CREDITS :

   NOAA       Earth
Advisory